Time;durP1;ratioP1;P1;durP2;ratioP2;P2;SDS_P1;SDS_P2;PMS_P1;PMS_P2;Temp;Humidity;BMP_temperature;BMP_pressure;BME280_temperature;BME280_humidity;BME280_pressure;Samples;Min_cycle;Max_cycle;Signal;HPM_P1;HPM_P2
2023/06/13 00:00:22;;;;;;;4.82;1.70;;;;;;;;;;4913114;29;20066;-81
2023/06/13 00:02:47;;;;;;;6.00;1.95;;;;;;;;;;4913876;29;20043;-81
2023/06/13 00:05:21;;;;;;;3.97;2.17;;;;;;;;;;4914267;28;20390;-81
2023/06/13 00:07:47;;;;;;;4.65;2.00;;;;;;;;;;4916341;29;20227;-81
2023/06/13 00:10:12;;;;;;;4.38;1.83;;;;;;;;;;4917090;28;20471;-81
2023/06/13 00:12:38;;;;;;;4.72;1.73;;;;;;;;;;4907240;28;20028;-81
2023/06/13 00:15:05;;;;;;;3.42;1.90;;;;;;;;;;4917275;28;20083;-81
2023/06/13 00:17:31;;;;;;;4.50;2.00;;;;;;;;;;4915183;29;20502;-81
2023/06/13 00:19:59;;;;;;;4.13;2.03;;;;;;;;;;4907548;28;20505;-81
2023/06/13 00:22:25;;;;;;;3.55;1.88;;;;;;;;;;4906474;29;20559;-81
2023/06/13 00:24:50;;;;;;;4.05;1.80;;;;;;;;;;4919069;29;20387;-81
2023/06/13 00:27:16;;;;;;;4.35;1.90;;;;;;;;;;4916579;28;20039;-81
2023/06/13 00:29:42;;;;;;;4.43;2.10;;;;;;;;;;4915743;28;20113;-82
2023/06/13 00:32:08;;;;;;;5.68;1.80;;;;;;;;;;4894338;28;20044;-81
2023/06/13 00:34:35;;;;;;;3.50;1.80;;;;;;;;;;4908109;28;20118;-81
2023/06/13 00:37:00;;;;;;;3.58;1.77;;;;;;;;;;4931911;28;20035;-81
2023/06/13 00:39:28;;;;;;;3.63;1.70;;;;;;;;;;4914829;28;20049;-81
2023/06/13 00:41:53;;;;;;;3.05;1.70;;;;;;;;;;4906114;29;20041;-82
2023/06/13 00:44:19;;;;;;;5.60;1.73;;;;;;;;;;4916351;29;20490;-81
2023/06/13 00:46:45;;;;;;;3.42;1.80;;;;;;;;;;4916781;28;20039;-81
2023/06/13 00:49:12;;;;;;;4.13;1.98;;;;;;;;;;4933556;28;20562;-82
2023/06/13 00:51:41;;;;;;;3.25;1.80;;;;;;;;;;4913335;28;20465;-81
2023/06/13 00:54:08;;;;;;;5.50;2.42;;;;;;;;;;4917932;28;20046;-82
2023/06/13 00:56:34;;;;;;;4.38;2.17;;;;;;;;;;4930396;28;20120;-81
2023/06/13 00:59:01;;;;;;;3.38;1.83;;;;;;;;;;4918928;28;20102;-81
2023/06/13 01:01:27;;;;;;;7.45;2.42;;;;;;;;;;4901233;28;20040;-81
2023/06/13 01:03:55;;;;;;;3.78;2.17;;;;;;;;;;4921084;29;20587;-81
2023/06/13 01:06:30;;;;;;;5.30;2.00;;;;;;;;;;4917231;29;20046;-81
2023/06/13 01:08:58;;;;;;;4.75;2.40;;;;;;;;;;4931886;28;20795;-81
2023/06/13 01:11:29;;;;;;;;;;;;;;;;;;4931424;28;20038;-81
2023/06/13 01:14:02;;;;;;;3.83;1.92;;;;;;;;;;4933735;28;20270;-81
2023/06/13 01:16:45;;;;;;;5.40;2.00;;;;;;;;;;4900055;28;20128;-81
2023/06/13 01:19:23;;;;;;;4.82;1.90;;;;;;;;;;4914711;28;20072;-81
2023/06/13 01:21:50;;;;;;;5.03;1.85;;;;;;;;;;4920298;28;20047;-81
2023/06/13 01:24:27;;;;;;;3.92;1.73;;;;;;;;;;4912251;28;21005;-81
2023/06/13 01:26:57;;;;;;;5.60;2.22;;;;;;;;;;4897495;29;20078;-81
2023/06/13 01:29:22;;;;;;;3.30;1.77;;;;;;;;;;4926264;29;20039;-81
2023/06/13 01:31:53;;;;;;;4.03;2.13;;;;;;;;;;4915937;29;20510;-81
2023/06/13 01:34:19;;;;;;;6.40;2.38;;;;;;;;;;4908580;29;20500;-80
2023/06/13 01:36:44;;;;;;;4.82;2.00;;;;;;;;;;4894265;28;20094;-81
2023/06/13 01:39:10;;;;;;;3.45;1.77;;;;;;;;;;4919639;28;20039;-81
2023/06/13 01:41:35;;;;;;;4.15;2.00;;;;;;;;;;4933014;28;20368;-81
2023/06/13 01:44:02;;;;;;;4.07;2.03;;;;;;;;;;4910792;28;20062;-81
2023/06/13 01:46:33;;;;;;;4.50;1.90;;;;;;;;;;4907413;28;20066;-81
2023/06/13 01:49:16;;;;;;;5.05;1.75;;;;;;;;;;4907312;29;20040;-81
2023/06/13 01:52:00;;;;;;;3.97;1.80;;;;;;;;;;4915972;28;20488;-81
2023/06/13 01:54:26;;;;;;;5.07;2.03;;;;;;;;;;4929468;28;20039;-81
2023/06/13 01:56:56;;;;;;;4.25;2.30;;;;;;;;;;4914862;29;20040;-81
2023/06/13 01:59:26;;;;;;;3.78;2.00;;;;;;;;;;4915823;29;20039;-81
2023/06/13 02:01:52;;;;;;;5.00;2.08;;;;;;;;;;4903314;29;20364;-81
2023/06/13 02:04:19;;;;;;;4.55;2.10;;;;;;;;;;4917888;28;20038;-81
2023/06/13 02:06:45;;;;;;;4.18;2.20;;;;;;;;;;4909570;28;20407;-81
2023/06/13 02:09:10;;;;;;;4.40;2.00;;;;;;;;;;4933152;28;20032;-81
2023/06/13 02:11:36;;;;;;;6.32;2.10;;;;;;;;;;4908915;28;20039;-81
2023/06/13 02:14:01;;;;;;;4.68;2.13;;;;;;;;;;4912130;29;20035;-82
2023/06/13 02:16:29;;;;;;;4.95;2.00;;;;;;;;;;4914163;28;20059;-81
2023/06/13 02:18:55;;;;;;;3.72;1.95;;;;;;;;;;4933916;28;20043;-81
2023/06/13 02:21:21;;;;;;;3.90;2.05;;;;;;;;;;4922587;29;20038;-81
2023/06/13 02:23:47;;;;;;;4.13;2.25;;;;;;;;;;4918132;28;20439;-81
2023/06/13 02:26:16;;;;;;;4.20;1.92;;;;;;;;;;4932568;28;20122;-81
2023/06/13 02:28:42;;;;;;;4.50;2.10;;;;;;;;;;4918635;28;20499;-82
2023/06/13 02:31:08;;;;;;;4.78;2.28;;;;;;;;;;4934443;28;20042;-82
2023/06/13 02:33:36;;;;;;;4.50;2.05;;;;;;;;;;4906110;28;20109;-81
2023/06/13 02:36:02;;;;;;;4.63;2.45;;;;;;;;;;4917506;28;20146;-82
2023/06/13 02:38:27;;;;;;;6.70;2.00;;;;;;;;;;4911174;28;20126;-80
2023/06/13 02:40:54;;;;;;;4.47;2.00;;;;;;;;;;4933148;28;20081;-80
2023/06/13 02:43:19;;;;;;;5.63;2.35;;;;;;;;;;4904293;29;20038;-80
2023/06/13 02:45:45;;;;;;;6.40;2.00;;;;;;;;;;4913204;28;20126;-80
2023/06/13 02:48:11;;;;;;;4.32;2.10;;;;;;;;;;4922569;28;20090;-81
2023/06/13 02:50:36;;;;;;;4.55;2.20;;;;;;;;;;4908961;28;20040;-81
2023/06/13 02:53:02;;;;;;;4.03;2.28;;;;;;;;;;4925660;28;20372;-80
2023/06/13 02:55:29;;;;;;;4.95;2.13;;;;;;;;;;4909510;28;20040;-81
2023/06/13 02:57:55;;;;;;;5.82;2.10;;;;;;;;;;4917837;29;20458;-80
2023/06/13 03:00:20;;;;;;;5.05;2.20;;;;;;;;;;4920146;28;20040;-81
2023/06/13 03:02:46;;;;;;;4.35;2.10;;;;;;;;;;4917187;28;20032;-81
2023/06/13 03:05:15;;;;;;;4.13;2.22;;;;;;;;;;4920867;28;20043;-81
2023/06/13 03:07:46;;;;;;;3.72;2.03;;;;;;;;;;4918235;28;20512;-81
2023/06/13 03:10:12;;;;;;;3.72;2.22;;;;;;;;;;4919427;28;20039;-81
2023/06/13 03:12:38;;;;;;;6.53;2.25;;;;;;;;;;4910902;28;20123;-82
2023/06/13 03:15:03;;;;;;;5.15;2.55;;;;;;;;;;4918385;28;20147;-81
2023/06/13 03:17:29;;;;;;;5.57;2.22;;;;;;;;;;4932144;28;20118;-82
2023/06/13 03:19:55;;;;;;;4.22;1.80;;;;;;;;;;4909829;29;20123;-81
2023/06/13 03:22:20;;;;;;;4.05;2.20;;;;;;;;;;4932491;28;20078;-82
2023/06/13 03:24:46;;;;;;;7.93;2.30;;;;;;;;;;4914703;28;20035;-81
2023/06/13 03:27:12;;;;;;;4.97;2.78;;;;;;;;;;4918962;28;20492;-81
2023/06/13 03:29:46;;;;;;;4.82;2.17;;;;;;;;;;4932133;28;20452;-82
2023/06/13 03:32:12;;;;;;;4.80;2.28;;;;;;;;;;4911104;28;20035;-80
2023/06/13 03:34:38;;;;;;;5.97;2.55;;;;;;;;;;4914551;28;20499;-83
2023/06/13 03:37:06;;;;;;;4.20;2.20;;;;;;;;;;4919311;28;20514;-82
2023/06/13 03:39:33;;;;;;;5.82;2.45;;;;;;;;;;4916579;28;20086;-80
2023/06/13 03:42:00;;;;;;;5.18;2.50;;;;;;;;;;4907626;28;20028;-82
2023/06/13 03:44:26;;;;;;;4.07;2.05;;;;;;;;;;4919301;28;20094;-81
2023/06/13 03:46:52;;;;;;;4.97;2.33;;;;;;;;;;4916752;29;20046;-82
2023/06/13 03:49:21;;;;;;;4.68;2.08;;;;;;;;;;4916288;28;20039;-82
2023/06/13 03:51:46;;;;;;;3.88;2.10;;;;;;;;;;4916746;28;20455;-82
2023/06/13 03:54:11;;;;;;;7.70;2.33;;;;;;;;;;4906903;29;20036;-83
2023/06/13 03:56:37;;;;;;;4.47;2.10;;;;;;;;;;4911205;28;20121;-83
2023/06/13 03:59:02;;;;;;;4.72;2.10;;;;;;;;;;4917069;28;20043;-82
2023/06/13 04:01:28;;;;;;;4.13;2.10;;;;;;;;;;4915338;28;20061;-82
2023/06/13 04:03:54;;;;;;;4.38;2.10;;;;;;;;;;4904719;29;20046;-83
2023/06/13 04:06:20;;;;;;;5.93;2.30;;;;;;;;;;4915606;29;20036;-83
2023/06/13 04:08:45;;;;;;;3.60;2.05;;;;;;;;;;4917615;28;20047;-83
2023/06/13 04:11:14;;;;;;;5.40;2.30;;;;;;;;;;4932161;28;20036;-85
2023/06/13 04:13:41;;;;;;;4.43;2.17;;;;;;;;;;4917515;28;20036;-85
2023/06/13 04:16:06;;;;;;;5.38;2.40;;;;;;;;;;4917833;28;20069;-82
2023/06/13 04:18:33;;;;;;;7.93;2.50;;;;;;;;;;4914802;28;20083;-82
2023/06/13 04:21:01;;;;;;;4.93;2.28;;;;;;;;;;4918728;28;20488;-83
2023/06/13 04:23:27;;;;;;;6.00;2.78;;;;;;;;;;4906243;28;20039;-82
2023/06/13 04:25:53;;;;;;;5.85;2.30;;;;;;;;;;4915780;29;20391;-83
2023/06/13 04:28:18;;;;;;;6.80;2.35;;;;;;;;;;4918981;28;20040;-82
2023/06/13 04:30:46;;;;;;;5.05;2.33;;;;;;;;;;4930352;28;20718;-83
2023/06/13 04:33:17;;;;;;;5.25;2.65;;;;;;;;;;4904211;28;20040;-82
2023/06/13 04:35:48;;;;;;;5.90;2.53;;;;;;;;;;4915033;28;20474;-83
2023/06/13 04:38:22;;;;;;;5.88;2.40;;;;;;;;;;4918611;28;20049;-85
2023/06/13 04:40:48;;;;;;;4.72;2.30;;;;;;;;;;4914542;28;20050;-85
2023/06/13 04:43:14;;;;;;;7.90;2.50;;;;;;;;;;4904877;28;20044;-85
2023/06/13 04:45:43;;;;;;;4.57;2.45;;;;;;;;;;4901065;29;20032;-85
2023/06/13 04:48:10;;;;;;;8.05;2.90;;;;;;;;;;4918991;28;20677;-85
2023/06/13 04:50:44;;;;;;;4.53;2.22;;;;;;;;;;4914094;28;20036;-85
2023/06/13 04:53:11;;;;;;;4.22;2.25;;;;;;;;;;4913252;28;20039;-86
2023/06/13 04:55:43;;;;;;;4.93;2.30;;;;;;;;;;4902454;28;20039;-84
2023/06/13 04:58:08;;;;;;;6.88;2.58;;;;;;;;;;4918015;28;20035;-81
2023/06/13 05:00:36;;;;;;;5.55;2.65;;;;;;;;;;4902502;29;20115;-80
2023/06/13 05:03:02;;;;;;;5.18;2.78;;;;;;;;;;4918131;28;20490;-81
2023/06/13 05:05:29;;;;;;;6.38;2.50;;;;;;;;;;4912425;28;20043;-80
2023/06/13 05:07:57;;;;;;;;;;;;;;;;;;4914430;28;20027;-81
2023/06/13 05:10:29;;;;;;;4.72;2.30;;;;;;;;;;4912833;28;19953;-81
2023/06/13 05:12:55;;;;;;;6.72;2.35;;;;;;;;;;4930133;29;20492;-80
2023/06/13 05:15:24;;;;;;;6.05;2.60;;;;;;;;;;4913157;28;20099;-79
2023/06/13 05:17:52;;;;;;;4.93;2.35;;;;;;;;;;4912576;29;20110;-79
2023/06/13 05:20:22;;;;;;;5.72;2.50;;;;;;;;;;4909266;29;20449;-79
2023/06/13 05:22:49;;;;;;;5.65;2.25;;;;;;;;;;4916845;28;20038;-80
2023/06/13 05:25:15;;;;;;;5.95;2.40;;;;;;;;;;4914344;28;20050;-79
2023/06/13 05:27:40;;;;;;;4.97;2.15;;;;;;;;;;4921245;28;20040;-79
2023/06/13 05:30:10;;;;;;;4.50;2.50;;;;;;;;;;4907803;28;20087;-80
2023/06/13 05:32:35;;;;;;;10.82;2.70;;;;;;;;;;4903363;28;20059;-82
2023/06/13 05:35:01;;;;;;;6.68;2.33;;;;;;;;;;4907115;28;20982;-82
2023/06/13 05:37:28;;;;;;;6.57;2.28;;;;;;;;;;4921662;28;20079;-82
2023/06/13 05:39:54;;;;;;;4.78;2.40;;;;;;;;;;4909482;29;20044;-83
2023/06/13 05:42:19;;;;;;;4.80;2.50;;;;;;;;;;4909127;29;20039;-83
2023/06/13 05:44:45;;;;;;;4.75;2.20;;;;;;;;;;4936858;28;20130;-83
2023/06/13 05:47:10;;;;;;;4.47;2.30;;;;;;;;;;4937005;28;20035;-82
2023/06/13 05:49:36;;;;;;;5.28;2.50;;;;;;;;;;4913521;28;20086;-80
2023/06/13 05:52:01;;;;;;;6.07;2.35;;;;;;;;;;4915887;28;20850;-80
2023/06/13 05:54:27;;;;;;;4.18;2.10;;;;;;;;;;4933964;28;20031;-82
2023/06/13 05:56:52;;;;;;;5.70;2.60;;;;;;;;;;4906788;29;20062;-82
2023/06/13 05:59:17;;;;;;;5.28;2.72;;;;;;;;;;4929432;28;20044;-79
2023/06/13 06:01:45;;;;;;;7.03;2.60;;;;;;;;;;4917015;28;20039;-80
2023/06/13 06:04:10;;;;;;;;;;;;;;;;;;4917914;28;20043;-83
2023/06/13 06:06:36;;;;;;;6.37;2.70;;;;;;;;;;4925703;28;19915;-80
2023/06/13 06:09:04;;;;;;;6.85;2.75;;;;;;;;;;4922738;28;20362;-80
2023/06/13 06:11:31;;;;;;;10.57;2.80;;;;;;;;;;4909059;28;20035;-81
2023/06/13 06:13:56;;;;;;;7.30;2.15;;;;;;;;;;4930404;28;20035;-80
2023/06/13 06:16:22;;;;;;;5.45;2.70;;;;;;;;;;4919333;29;20612;-80
2023/06/13 06:18:53;;;;;;;18.25;3.50;;;;;;;;;;4917514;28;20115;-80
2023/06/13 06:21:19;;;;;;;6.50;2.65;;;;;;;;;;4907534;29;20495;-80
2023/06/13 06:23:45;;;;;;;5.53;2.75;;;;;;;;;;4919145;28;20168;-82
2023/06/13 06:26:13;;;;;;;6.18;2.65;;;;;;;;;;4911987;28;20039;-81
2023/06/13 06:28:41;;;;;;;6.20;2.35;;;;;;;;;;4918037;28;20097;-80
2023/06/13 06:31:07;;;;;;;5.03;2.45;;;;;;;;;;4915998;28;20035;-81
2023/06/13 06:33:32;;;;;;;5.10;2.47;;;;;;;;;;4919448;28;20111;-81
2023/06/13 06:35:57;;;;;;;5.22;2.75;;;;;;;;;;4925302;28;20046;-81
2023/06/13 06:38:23;;;;;;;5.53;2.70;;;;;;;;;;4918049;29;20035;-80
2023/06/13 06:40:49;;;;;;;4.63;2.47;;;;;;;;;;4920647;28;20044;-81
2023/06/13 06:43:14;;;;;;;4.95;2.67;;;;;;;;;;4916135;28;20043;-80
2023/06/13 06:45:40;;;;;;;7.20;2.60;;;;;;;;;;4908083;28;20095;-80
2023/06/13 06:48:05;;;;;;;7.55;2.80;;;;;;;;;;4919369;28;20041;-80
2023/06/13 06:50:30;;;;;;;4.53;2.40;;;;;;;;;;4932680;28;20035;-80
2023/06/13 06:52:56;;;;;;;5.45;2.80;;;;;;;;;;4935545;28;20059;-79
2023/06/13 06:55:21;;;;;;;4.95;2.50;;;;;;;;;;4917474;28;20427;-80
2023/06/13 06:57:47;;;;;;;6.57;2.80;;;;;;;;;;4898703;28;20035;-82
2023/06/13 07:00:14;;;;;;;6.28;2.50;;;;;;;;;;4907708;28;20051;-82
2023/06/13 07:02:42;;;;;;;6.50;2.92;;;;;;;;;;4931284;28;20503;-80
2023/06/13 07:05:08;;;;;;;6.18;2.80;;;;;;;;;;4916079;28;20376;-82
2023/06/13 07:07:35;;;;;;;6.75;2.92;;;;;;;;;;4912340;28;20032;-81
2023/06/13 07:10:01;;;;;;;6.28;2.75;;;;;;;;;;4933918;28;20039;-80
2023/06/13 07:12:26;;;;;;;7.07;3.42;;;;;;;;;;4906777;28;20485;-82
2023/06/13 07:14:52;;;;;;;5.70;2.78;;;;;;;;;;4918119;29;20035;-80
2023/06/13 07:17:20;;;;;;;5.97;2.60;;;;;;;;;;4931912;28;20048;-81
2023/06/13 07:19:45;;;;;;;5.75;2.60;;;;;;;;;;4916866;28;20074;-81
2023/06/13 07:22:10;;;;;;;5.50;2.72;;;;;;;;;;4914569;28;20062;-81
2023/06/13 07:24:36;;;;;;;5.68;2.85;;;;;;;;;;4921143;28;20487;-80
2023/06/13 07:27:05;;;;;;;5.82;2.80;;;;;;;;;;4911251;28;20403;-81
2023/06/13 07:29:31;;;;;;;6.03;2.80;;;;;;;;;;4930731;28;20514;-80
2023/06/13 07:31:56;;;;;;;4.57;2.22;;;;;;;;;;4901413;28;20047;-80
2023/06/13 07:34:22;;;;;;;5.63;2.40;;;;;;;;;;4919702;29;20114;-80
2023/06/13 07:36:48;;;;;;;6.72;3.00;;;;;;;;;;4911189;28;20067;-81
2023/06/13 07:39:14;;;;;;;8.20;2.40;;;;;;;;;;4932010;28;20179;-80
2023/06/13 07:41:39;;;;;;;4.35;2.20;;;;;;;;;;4886208;28;20383;-81
2023/06/13 07:44:05;;;;;;;5.47;3.00;;;;;;;;;;4906520;28;20040;-81
2023/06/13 07:46:31;;;;;;;5.20;2.28;;;;;;;;;;4915738;29;20130;-81
2023/06/13 07:48:57;;;;;;;6.97;2.60;;;;;;;;;;4899911;28;20134;-81
2023/06/13 07:51:24;;;;;;;5.03;2.40;;;;;;;;;;4900504;29;20038;-82
2023/06/13 07:53:51;;;;;;;6.05;2.47;;;;;;;;;;4903994;29;20472;-80
2023/06/13 07:56:17;;;;;;;6.38;2.50;;;;;;;;;;4919968;28;20035;-81
2023/06/13 07:58:42;;;;;;;7.30;2.70;;;;;;;;;;4930885;28;20066;-82
2023/06/13 08:01:08;;;;;;;4.47;2.30;;;;;;;;;;4900808;28;20048;-81
2023/06/13 08:03:34;;;;;;;4.88;2.08;;;;;;;;;;4914834;28;20047;-80
2023/06/13 08:06:00;;;;;;;6.03;2.17;;;;;;;;;;4904694;28;20042;-81
2023/06/13 08:08:26;;;;;;;9.63;2.30;;;;;;;;;;4932381;29;20035;-81
2023/06/13 08:10:51;;;;;;;4.70;2.25;;;;;;;;;;4931837;28;20090;-80
2023/06/13 08:13:16;;;;;;;7.68;2.50;;;;;;;;;;4928912;28;20114;-81
2023/06/13 08:15:43;;;;;;;5.38;2.53;;;;;;;;;;4909845;28;20115;-81
2023/06/13 08:18:08;;;;;;;10.07;2.30;;;;;;;;;;4906587;28;20039;-81
2023/06/13 08:20:37;;;;;;;4.72;2.20;;;;;;;;;;4900381;28;20553;-80
2023/06/13 08:23:03;;;;;;;4.47;2.33;;;;;;;;;;4931117;28;20075;-81
2023/06/13 08:25:30;;;;;;;5.22;2.35;;;;;;;;;;4911152;28;20129;-82
2023/06/13 08:27:55;;;;;;;5.05;2.13;;;;;;;;;;4920864;29;20039;-82
2023/06/13 08:30:26;;;;;;;4.88;2.13;;;;;;;;;;4914613;29;20043;-81
2023/06/13 08:32:52;;;;;;;6.85;2.47;;;;;;;;;;4888020;29;20043;-80
2023/06/13 08:35:19;;;;;;;7.80;2.20;;;;;;;;;;4930506;28;20391;-81
2023/06/13 08:37:44;;;;;;;4.90;2.05;;;;;;;;;;4916566;28;20460;-82
2023/06/13 08:40:10;;;;;;;4.63;2.28;;;;;;;;;;4912741;28;20051;-80
2023/06/13 08:42:39;;;;;;;4.00;2.20;;;;;;;;;;4892580;28;20035;-80
2023/06/13 08:45:06;;;;;;;7.22;2.30;;;;;;;;;;4916820;28;20089;-79
2023/06/13 08:47:33;;;;;;;5.10;1.95;;;;;;;;;;4898552;28;20046;-80
2023/06/13 08:50:00;;;;;;;6.60;2.22;;;;;;;;;;4918743;28;20027;-81
2023/06/13 08:52:27;;;;;;;4.05;2.00;;;;;;;;;;4906139;29;20479;-79
2023/06/13 08:54:56;;;;;;;;;;;;;;;;;;4917706;29;21130;-79
2023/06/13 08:57:25;;;;;;;7.03;1.95;;;;;;;;;;4907315;29;19919;-80
2023/06/13 08:59:52;;;;;;;4.82;1.83;;;;;;;;;;4929797;29;20075;-80
2023/06/13 09:02:23;;;;;;;5.65;2.17;;;;;;;;;;4922857;28;20050;-80
2023/06/13 09:04:49;;;;;;;4.65;2.00;;;;;;;;;;4903300;28;20039;-80
2023/06/13 09:07:18;;;;;;;5.07;2.00;;;;;;;;;;4903196;28;20040;-80
2023/06/13 09:09:45;;;;;;;5.35;1.80;;;;;;;;;;4920343;28;20496;-82
2023/06/13 09:12:13;;;;;;;7.70;2.25;;;;;;;;;;4909730;28;20456;-82
2023/06/13 09:14:41;;;;;;;3.42;1.60;;;;;;;;;;4905918;28;20122;-81
2023/06/13 09:17:13;;;;;;;4.10;1.77;;;;;;;;;;4917771;28;20205;-81
2023/06/13 09:19:38;;;;;;;3.10;1.60;;;;;;;;;;4923199;28;20106;-82
2023/06/13 09:22:07;;;;;;;5.25;2.22;;;;;;;;;;4913301;28;20036;-83
2023/06/13 09:24:33;;;;;;;3.67;1.73;;;;;;;;;;4919403;28;20745;-82
2023/06/13 09:27:01;;;;;;;5.40;2.17;;;;;;;;;;4905696;28;20115;-80
2023/06/13 09:29:31;;;;;;;3.97;1.95;;;;;;;;;;4919301;28;20039;-81
2023/06/13 09:32:03;;;;;;;4.93;2.10;;;;;;;;;;4922468;28;20523;-80
2023/06/13 09:34:29;;;;;;;3.78;1.98;;;;;;;;;;4921890;28;20040;-81
2023/06/13 09:36:59;;;;;;;7.40;2.10;;;;;;;;;;4909295;29;20081;-81
2023/06/13 09:39:25;;;;;;;10.43;3.00;;;;;;;;;;4898345;28;20540;-79
2023/06/13 09:41:56;;;;;;;6.97;2.20;;;;;;;;;;4917031;29;20511;-80
2023/06/13 09:44:23;;;;;;;5.53;2.00;;;;;;;;;;4917831;29;20036;-81
2023/06/13 09:46:52;;;;;;;3.88;1.58;;;;;;;;;;4920700;28;20512;-80
2023/06/13 09:49:18;;;;;;;3.58;1.58;;;;;;;;;;4908144;28;20084;-80
2023/06/13 09:51:45;;;;;;;4.80;1.80;;;;;;;;;;4918853;28;20420;-81
2023/06/13 09:54:10;;;;;;;;;;;;;;;;;;4920706;28;20039;-83
2023/06/13 09:56:35;;;;;;;5.45;1.80;;;;;;;;;;4918515;28;20759;-81
2023/06/13 09:59:01;;;;;;;5.30;1.67;;;;;;;;;;4918876;28;20047;-82
2023/06/13 10:01:29;;;;;;;4.90;1.60;;;;;;;;;;4921285;28;20047;-82
2023/06/13 10:04:05;;;;;;;;;;;;;;;;;;4905924;29;20495;-81
2023/06/13 10:06:31;;;;;;;;;;;;;;;;;;4921197;28;19924;-81
2023/06/13 10:08:59;;;;;;;4.43;1.50;;;;;;;;;;4911522;28;19918;-81
2023/06/13 10:11:30;;;;;;;3.50;1.60;;;;;;;;;;4921387;29;20042;-80
2023/06/13 10:14:10;;;;;;;5.90;1.77;;;;;;;;;;4917610;29;20513;-84
2023/06/13 10:16:39;;;;;;;4.32;1.30;;;;;;;;;;4919394;28;20741;-82
2023/06/13 10:19:05;;;;;;;4.97;1.55;;;;;;;;;;4895788;28;20039;-81
2023/06/13 10:21:32;;;;;;;3.95;1.42;;;;;;;;;;4914981;28;20176;-82
2023/06/13 10:24:01;;;;;;;4.18;1.30;;;;;;;;;;4904676;28;20042;-81
2023/06/13 10:26:32;;;;;;;5.68;1.35;;;;;;;;;;4933732;28;20043;-82
2023/06/13 10:29:30;;;;;;;4.50;1.52;;;;;;;;;;4933551;28;20039;-82
2023/06/13 10:32:15;;;;;;;4.68;1.58;;;;;;;;;;4919954;28;20488;-80
2023/06/13 10:34:50;;;;;;;4.90;1.58;;;;;;;;;;4915746;28;20841;-82
2023/06/13 10:37:41;;;;;;;5.82;1.60;;;;;;;;;;4933275;28;20483;-81
2023/06/13 10:40:18;;;;;;;6.28;1.80;;;;;;;;;;4931758;28;20381;-80
2023/06/13 10:42:48;;;;;;;3.35;1.73;;;;;;;;;;4933924;28;20518;-81
2023/06/13 10:45:18;;;;;;;3.45;1.60;;;;;;;;;;4916539;28;20043;-83
2023/06/13 10:47:44;;;;;;;3.35;1.75;;;;;;;;;;4927824;28;20479;-80
2023/06/13 10:50:13;;;;;;;3.28;1.60;;;;;;;;;;4915682;29;20042;-81
2023/06/13 10:52:43;;;;;;;5.78;1.55;;;;;;;;;;4918504;28;20031;-80
2023/06/13 10:55:13;;;;;;;4.57;1.55;;;;;;;;;;4905220;28;20380;-80
2023/06/13 10:57:49;;;;;;;3.97;1.50;;;;;;;;;;4918149;28;20066;-80
2023/06/13 11:00:35;;;;;;;5.53;1.60;;;;;;;;;;4918894;28;20428;-81
2023/06/13 11:03:04;;;;;;;4.72;1.50;;;;;;;;;;4902975;28;20040;-80
2023/06/13 11:05:33;;;;;;;4.10;1.90;;;;;;;;;;4903101;28;20046;-81
2023/06/13 11:07:58;;;;;;;5.07;1.55;;;;;;;;;;4925016;28;20042;-80
2023/06/13 11:10:24;;;;;;;6.18;2.03;;;;;;;;;;4918958;28;20040;-80
2023/06/13 11:12:53;;;;;;;5.28;1.60;;;;;;;;;;4915059;28;20107;-82
2023/06/13 11:15:20;;;;;;;4.22;1.60;;;;;;;;;;4914973;28;20491;-81
2023/06/13 11:18:20;;;;;;;4.07;1.60;;;;;;;;;;4937919;28;20035;-80
2023/06/13 11:21:06;;;;;;;4.85;1.67;;;;;;;;;;4824944;29;20045;-80
2023/06/13 11:23:56;;;;;;;4.22;1.45;;;;;;;;;;4910205;28;20050;-82
2023/06/13 11:26:22;;;;;;;3.65;1.30;;;;;;;;;;4901358;29;20042;-81
2023/06/13 11:28:51;;;;;;;2.33;1.05;;;;;;;;;;4903374;28;20038;-81
2023/06/13 11:31:17;;;;;;;3.45;1.50;;;;;;;;;;4933924;28;20559;-80
2023/06/13 11:33:46;;;;;;;7.00;1.55;;;;;;;;;;4917743;29;20040;-82
2023/06/13 11:36:14;;;;;;;3.67;1.30;;;;;;;;;;4935030;28;20091;-79
2023/06/13 11:38:43;;;;;;;4.53;1.60;;;;;;;;;;4933758;28;20094;-80
2023/06/13 11:41:12;;;;;;;4.15;1.80;;;;;;;;;;4903777;28;20048;-82
2023/06/13 11:43:38;;;;;;;3.17;1.50;;;;;;;;;;4918282;28;20503;-81
2023/06/13 11:46:04;;;;;;;3.53;1.38;;;;;;;;;;4898452;28;20040;-80
2023/06/13 11:48:30;;;;;;;3.70;1.50;;;;;;;;;;4915511;28;20106;-81
2023/06/13 11:51:12;;;;;;;3.67;1.65;;;;;;;;;;4920305;29;20279;-81
2023/06/13 11:53:50;;;;;;;3.63;1.60;;;;;;;;;;4930080;28;20039;-81
2023/06/13 11:56:17;;;;;;;3.60;1.30;;;;;;;;;;4927265;28;21237;-83
2023/06/13 11:58:43;;;;;;;;;;;;;;;;;;4919580;28;20052;-81
2023/06/13 12:01:13;;;;;;;5.30;1.50;;;;;;;;;;4886468;28;19927;-83
2023/06/13 12:03:40;;;;;;;3.17;1.20;;;;;;;;;;4920488;28;20035;-81
2023/06/13 12:06:06;;;;;;;4.95;1.90;;;;;;;;;;4917151;28;20099;-81
2023/06/13 12:08:35;;;;;;;5.57;1.47;;;;;;;;;;4946971;28;20407;-81
2023/06/13 12:11:05;;;;;;;2.85;1.50;;;;;;;;;;4922428;28;20032;-80
2023/06/13 12:13:33;;;;;;;4.35;1.38;;;;;;;;;;4908362;28;20090;-80
2023/06/13 12:15:59;;;;;;;3.58;1.35;;;;;;;;;;4930999;28;20043;-82
2023/06/13 12:18:24;;;;;;;3.30;1.45;;;;;;;;;;4931329;29;20496;-80
2023/06/13 12:20:51;;;;;;;6.72;1.80;;;;;;;;;;4917067;28;20042;-82
2023/06/13 12:23:20;;;;;;;2.80;1.40;;;;;;;;;;4921076;28;20066;-81
2023/06/13 12:25:46;;;;;;;4.40;1.73;;;;;;;;;;4930053;28;20176;-81
2023/06/13 12:28:15;;;;;;;4.97;1.60;;;;;;;;;;4915544;28;20840;-83
2023/06/13 12:30:42;;;;;;;4.05;1.33;;;;;;;;;;4917515;28;20078;-80
2023/06/13 12:33:14;;;;;;;2.75;1.30;;;;;;;;;;4915448;28;20042;-81
2023/06/13 12:35:53;;;;;;;13.43;1.90;;;;;;;;;;4907910;28;20908;-80
2023/06/13 12:38:29;;;;;;;4.00;1.50;;;;;;;;;;4893710;28;20420;-82
2023/06/13 12:40:58;;;;;;;3.75;1.45;;;;;;;;;;4900306;29;20047;-82
2023/06/13 12:43:26;;;;;;;4.82;1.52;;;;;;;;;;4892221;29;20090;-82
2023/06/13 12:45:57;;;;;;;3.85;1.63;;;;;;;;;;4931097;28;20530;-83
2023/06/13 12:48:23;;;;;;;3.35;1.30;;;;;;;;;;4893961;29;20495;-82
2023/06/13 12:50:58;;;;;;;4.25;1.75;;;;;;;;;;4908760;29;20042;-80
2023/06/13 12:53:24;;;;;;;3.47;1.80;;;;;;;;;;4895425;28;20478;-80
2023/06/13 12:55:51;;;;;;;4.03;1.83;;;;;;;;;;4906766;29;20039;-80
2023/06/13 12:58:30;;;;;;;2.78;1.50;;;;;;;;;;4923250;28;20047;-83
2023/06/13 13:00:56;;;;;;;3.67;1.48;;;;;;;;;;4918373;29;20058;-80
2023/06/13 13:03:21;;;;;;;4.03;1.60;;;;;;;;;;4904113;29;20050;-82
2023/06/13 13:05:50;;;;;;;3.15;1.50;;;;;;;;;;4913792;29;20404;-81
2023/06/13 13:08:17;;;;;;;4.47;1.42;;;;;;;;;;4933643;28;20507;-80
2023/06/13 13:10:43;;;;;;;3.83;1.50;;;;;;;;;;4930698;28;20038;-80
2023/06/13 13:13:09;;;;;;;5.40;1.60;;;;;;;;;;4915088;28;20044;-80
2023/06/13 13:15:35;;;;;;;6.35;1.65;;;;;;;;;;4913588;28;20040;-81
2023/06/13 13:18:01;;;;;;;4.00;1.60;;;;;;;;;;4923727;28;20515;-81
2023/06/13 13:20:26;;;;;;;5.72;1.65;;;;;;;;;;4913561;28;20063;-80
2023/06/13 13:22:52;;;;;;;3.38;1.50;;;;;;;;;;4933533;28;20043;-80
2023/06/13 13:25:17;;;;;;;3.97;1.20;;;;;;;;;;4929797;28;20032;-80
2023/06/13 13:27:44;;;;;;;4.35;1.30;;;;;;;;;;4919746;28;20123;-81
2023/06/13 13:30:10;;;;;;;5.88;1.45;;;;;;;;;;4907010;28;20129;-81
2023/06/13 13:32:36;;;;;;;3.75;1.10;;;;;;;;;;4939712;28;20794;-81
2023/06/13 13:35:03;;;;;;;2.25;1.10;;;;;;;;;;4929237;28;20122;-81
2023/06/13 13:37:28;;;;;;;3.60;1.20;;;;;;;;;;4917440;28;20043;-79
2023/06/13 13:39:56;;;;;;;2.85;1.60;;;;;;;;;;4920397;28;20044;-80
2023/06/13 13:42:21;;;;;;;4.30;1.67;;;;;;;;;;4932226;28;20499;-81
2023/06/13 13:44:47;;;;;;;5.05;1.80;;;;;;;;;;4914140;28;20039;-81
2023/06/13 13:47:13;;;;;;;3.78;1.35;;;;;;;;;;4904365;28;20122;-80
2023/06/13 13:49:45;;;;;;;4.75;1.27;;;;;;;;;;4917735;28;20032;-80
2023/06/13 13:52:10;;;;;;;2.95;1.25;;;;;;;;;;4911365;28;20520;-80
2023/06/13 13:54:36;;;;;;;3.35;1.40;;;;;;;;;;4910521;28;20111;-82
2023/06/13 13:57:03;;;;;;;5.25;1.33;;;;;;;;;;4935668;28;20158;-80
2023/06/13 13:59:28;;;;;;;4.30;1.45;;;;;;;;;;4919444;28;20056;-81
2023/06/13 14:01:53;;;;;;;2.78;1.50;;;;;;;;;;4914891;29;20039;-80
2023/06/13 14:04:19;;;;;;;4.43;1.40;;;;;;;;;;4918452;28;20055;-79
2023/06/13 14:06:45;;;;;;;4.85;1.40;;;;;;;;;;4918100;28;20043;-81
2023/06/13 14:09:13;;;;;;;4.43;1.40;;;;;;;;;;4912328;28;20038;-80
2023/06/13 14:11:38;;;;;;;3.05;1.27;;;;;;;;;;4897553;28;20035;-80
2023/06/13 14:14:04;;;;;;;2.95;1.30;;;;;;;;;;4917721;28;20042;-80
2023/06/13 14:16:29;;;;;;;3.63;1.50;;;;;;;;;;4908355;28;20035;-81
2023/06/13 14:18:57;;;;;;;4.13;1.55;;;;;;;;;;4918475;29;20094;-80
2023/06/13 14:21:22;;;;;;;5.65;1.58;;;;;;;;;;4917413;29;20047;-79
2023/06/13 14:23:48;;;;;;;5.03;1.70;;;;;;;;;;4910229;28;20039;-81
2023/06/13 14:26:13;;;;;;;2.25;1.17;;;;;;;;;;4907986;28;20046;-82
2023/06/13 14:28:41;;;;;;;3.97;1.50;;;;;;;;;;4919917;28;20035;-81
2023/06/13 14:31:06;;;;;;;;;;;;;;;;;;4914067;28;20040;-81
2023/06/13 14:33:31;;;;;;;3.22;1.45;;;;;;;;;;4915248;28;20351;-80
2023/06/13 14:35:57;;;;;;;3.00;1.50;;;;;;;;;;4915430;28;20051;-82
2023/06/13 14:38:22;;;;;;;6.03;1.58;;;;;;;;;;4910518;29;20115;-80
2023/06/13 14:40:47;;;;;;;5.30;1.58;;;;;;;;;;4915907;29;20091;-81
2023/06/13 14:43:13;;;;;;;3.33;1.50;;;;;;;;;;4932712;28;20093;-81
2023/06/13 14:45:38;;;;;;;3.15;1.50;;;;;;;;;;4908431;28;20035;-80
2023/06/13 14:48:04;;;;;;;3.42;1.77;;;;;;;;;;4908251;28;20047;-80